Westtown, NY (10998)

6:38 PM EST on March 05, 2015 (GMT -0500)
Westtown | Change Station
CLOSE
Current Station
Personal Weather Station
Location: Westtown, NY
Elevation: 691 ft
Nearby Weather Stations

Elev 691 ft 41.31 °N, 74.55 °W | Updated 37 seconds ago

Overcast
Overcast
19.0 °F
Feels Like 19 °F
N
0.0
Wind Variable Wind from North
Gusts 0.0 mph

Today
High -- | Low -- °F
--% Chance of Precip.
Yesterday
High -- | Low -- °F
Precip. -- in
6:26 AM 5:53 PM
Full, 100% visible
Pressure 30.24 in
Visibility 10.0 miles
Clouds Scattered Clouds 9000 ft
Overcast 11000 ft
Windchill 19 °F
Dew Point -2 °F
Humidity 39%
Rainfall in
Snow Depth Not available.
UV 0 out of 12
Pollen .60 out of 12
Air Quality Not available.
Flu Activity Not available.
METAR KFWN 052253Z AUTO 32005KT 10SM SCT090 OVC110 M06/M17 A3022 RMK AO2 SLP239 T10611172

More Conditions Fewer Conditions

Pressure 30.24 in
Visibility 10.0 miles
Clouds Scattered Clouds 9000 ft
Overcast 11000 ft
Windchill 19 °F
Dew Point -2 °F
Humidity 39%
Rainfall in
Snow Depth Not available.
UV 0 out of 12
Pollen .60 out of 12
Air Quality Not available.
Flu Activity Not available.
METAR KFWN 052253Z AUTO 32005KT 10SM SCT090 OVC110 M06/M17 A3022 RMK AO2 SLP239 T10611172

More Conditions Fewer Conditions

10-Day Weather Forecast

Almanac

Astronomy

Mar. 05, 2015 Rise Set
Actual Time
Civil Twilight
Nautical Twilight
Astronomical Twilight
Moon
Length of Visible Light
Length of Day
Tomorrow will be .
, % of the Moon is Illuminated

Today's Extremes

State Highs State Lows

Community

WunderPhotos

Upload Photos

1,803,057 photos uploaded!

WunderBlogs® & News

Nearby

Air Quality

  Air Quality AQ Index Pollutant
Not available.

Snow Depth

Station Depth Elevation

Earthquake Activity

City Distance Mag. Time & Date
Minimum magnitude displayed is 2.5.

Coastal Water Temperatures

Place Temperature

Nearby Weather Stations